METAR AND TAF INFORMATION
METAR FOR LTCK
ADDS - METARS form results

(2235 UTC 24 July 2017)
Data provider http://aviationweather.gov/adds/metars/
 
Forecast for: LTCK (MUS (TUR-AFB) , TR)
Text: TAF LTCK 241340Z 2415/2424 16008KT 9999 FEW040 SCT080
Forecast period: 1500 UTC 24 July 2017 to 0000 UTC 25 July 2017
Forecast type: FROM: standard forecast or significant change
Winds: from the SSE (160 degrees) at 9 MPH (8 knots; 4.2 m/s)
Visibility: 6 or more miles (10+ km)
Clouds: few clouds at 4000 feet AGL
scattered clouds at 8000 feet AGL
Weather: no significant weather forecast for this period

 AIRPORT MAP

 RUNWAY INFORMATION
Runway 11 Runway length 11649 ft Runway width 148 ft
Runway elevation 4158 ft Runway displaced threshold 0 ft Runway heading 116
Runway 29 Runway length 11649 ft Runway width 148 ft
Runway elevation 4160 ft Runway displaced threshold 0 ft Runway heading 296

 AIRPORT FREQUENCIES
Type APP Name APP Frequency 122.1 MHZ
Type GND Name GND Frequency 121.95 MHZ
Type TWR Name TWR Frequency 122.1 MHZ

 AIRPORT NEAR NAVIGATION AIDS
Type VOR-DME Name Mus Frequency 111200 KHZ
Type NDB Name Mus Frequency 319 KHZ



Copyright © 2011 - 2017 BirgenAir Virtual Airlines. All rights reserved. Developed by Goktug Unver